Time;durP1;ratioP1;P1;durP2;ratioP2;P2;SDS_P1;SDS_P2;PMS_P1;PMS_P2;Temp;Humidity;BMP_temperature;BMP_pressure;BME280_temperature;BME280_humidity;BME280_pressure;Samples;Min_cycle;Max_cycle;Signal;HPM_P1;HPM_P2
2022/12/30 14:39:21;;;;;;;8.48;2.10;;;8.90;92.30;;;8.47;72.26;99066.19;5126170;27;20759;-74
2022/12/30 14:41:49;;;;;;;9.05;2.05;;;9.50;90.40;;;8.61;71.72;99056.13;5101575;27;20040;-74
2022/12/30 14:44:23;;;;;;;7.20;2.08;;;9.70;89.70;;;8.74;71.34;99061.19;5067206;22;20041;-85
2022/12/30 14:47:01;;;;;;;6.93;2.20;;;9.80;89.40;;;8.84;71.17;99044.66;5037641;28;20041;-88
2022/12/30 14:49:38;;;;;;;6.60;1.92;;;9.90;89.30;;;8.89;70.89;99058.84;5045742;28;20048;-82
2022/12/30 14:52:19;;;;;;;9.73;1.77;;;10.00;88.90;;;8.97;70.78;99044.38;5050101;28;20130;-83
2022/12/30 14:54:56;;;;;;;9.55;2.50;;;10.00;88.90;;;9.04;71.06;99045.06;5024641;28;20049;-87
2022/12/30 14:57:26;;;;;;;7.13;2.13;;;10.10;89.10;;;9.07;70.79;99043.75;5027342;28;20076;-81
2022/12/30 15:00:15;;;;;;;7.25;2.20;;;10.10;88.80;;;9.13;70.67;99038.31;5025297;28;20487;-93
2022/12/30 15:02:48;;;;;;;7.10;2.40;;;10.20;88.60;;;9.16;70.57;99042.34;5040797;28;20041;-85
2022/12/30 15:05:21;;;;;;;8.13;2.00;;;10.20;88.50;;;9.15;70.56;99035.41;5024697;28;20121;-87
2022/12/30 15:07:58;;;;;;;6.88;1.60;;;10.30;88.40;;;9.20;70.57;99044.28;5007209;28;20093;-88
2022/12/30 15:10:39;;;;;;;7.18;2.28;;;10.30;88.40;;;9.23;70.51;99033.19;5023594;28;20052;-87
2022/12/30 15:13:19;;;;;;;7.07;1.70;;;10.30;88.50;;;9.23;70.52;99037.72;5016737;28;20099;-85
2022/12/30 15:15:52;;;;;;;9.13;2.53;;;10.30;88.50;;;9.26;70.55;99040.69;5024110;28;20046;-86
2022/12/30 15:18:36;;;;;;;9.13;2.72;;;10.30;88.60;;;9.24;70.45;99056.09;5025464;28;20112;-85
2022/12/30 15:21:28;;;;;;;6.40;1.92;;;10.30;88.50;;;9.25;70.71;99046.25;5023790;28;20048;-85
2022/12/30 15:24:09;;;;;;;8.35;1.85;;;10.40;88.50;;;9.28;70.61;99048.44;5022749;28;20052;-84
2022/12/30 15:26:46;;;;;;;;;;;10.40;88.50;;;9.24;70.81;99050.75;5042251;28;20052;-85
2022/12/30 15:29:19;;;;;;;5.03;1.75;;;10.50;88.70;;;9.24;70.83;99048.09;5015323;28;19921;-83
2022/12/30 15:31:50;;;;;;;5.50;1.33;;;10.40;88.70;;;9.25;70.96;99064.88;5024621;28;20569;-82
2022/12/30 15:34:22;;;;;;;7.65;1.63;;;10.40;88.90;;;9.21;71.44;99043.25;5023902;28;20050;-89
2022/12/30 15:36:49;;;;;;;5.18;1.45;;;10.30;89.50;;;9.17;71.64;99050.06;5026411;28;20041;-89
2022/12/30 15:39:20;;;;;;;5.72;1.42;;;10.30;89.70;;;9.19;71.73;99047.19;5017596;28;20392;-93
2022/12/30 15:41:49;;;;;;;7.00;1.60;;;10.30;89.70;;;9.18;71.69;99057.03;5015689;28;20044;-90
2022/12/30 15:44:22;;;;;;;4.35;1.63;;;10.30;89.80;;;9.17;72.06;99066.03;5012461;28;20050;-89
2022/12/30 15:47:00;;;;;;;4.75;1.70;;;10.30;90.10;;;9.18;72.34;99067.69;5005506;28;20046;-89
2022/12/30 15:49:50;;;;;;;6.28;1.73;;;10.30;90.30;;;9.16;72.77;99043.16;5011828;28;20078;-90
2022/12/30 15:52:17;;;;;;;3.97;1.50;;;10.30;90.50;;;9.19;72.63;99063.16;5006779;28;20045;-91
2022/12/30 15:54:50;;;;;;;6.30;1.50;;;10.30;90.50;;;9.22;72.44;99068.81;5009741;28;20054;-90
2022/12/30 15:57:22;;;;;;;4.97;1.67;;;10.30;90.60;;;9.25;72.64;99071.00;5008866;28;20045;-89
2022/12/30 15:59:54;;;;;;;7.10;2.45;;;10.30;90.60;;;9.26;72.79;99069.13;5010040;28;20115;-89
2022/12/30 16:02:26;;;;;;;5.25;1.55;;;10.30;91.10;;;9.20;73.09;99065.56;5039225;28;20100;-89
2022/12/30 16:04:54;;;;;;;3.88;1.58;;;10.30;91.00;;;9.26;72.95;99058.50;5011066;28;20125;-89
2022/12/30 16:07:27;;;;;;;4.63;1.45;;;10.40;90.80;;;9.26;73.02;99061.16;5002721;28;20424;-89
2022/12/30 16:10:01;;;;;;;4.38;1.58;;;10.40;91.30;;;9.28;73.13;99067.06;5026848;28;20038;-88
2022/12/30 16:12:38;;;;;;;5.07;2.00;;;10.40;91.40;;;9.32;72.94;99062.88;5004983;28;20475;-89
2022/12/30 16:15:19;;;;;;;12.50;7.60;;;10.40;91.10;;;9.28;73.23;99067.88;5009683;28;20411;-88
2022/12/30 16:18:01;;;;;;;17.88;9.50;;;10.40;91.10;;;9.33;73.20;99079.66;5021996;28;20096;-85
2022/12/30 16:20:33;;;;;;;8.10;4.55;;;10.40;91.40;;;9.34;73.44;99078.59;5009285;28;20046;-86
2022/12/30 16:23:10;;;;;;;6.40;2.53;;;10.40;91.60;;;9.34;73.55;99055.47;5004158;28;20153;-85
2022/12/30 16:25:41;;;;;;;6.80;2.70;;;10.40;91.60;;;9.38;73.32;99071.78;5026148;28;20046;-85
2022/12/30 16:28:37;;;;;;;5.57;2.80;;;10.40;91.50;;;9.37;73.69;99075.44;5010363;28;20041;-85
2022/12/30 16:31:07;;;;;;;6.07;2.20;;;10.50;92.10;;;9.37;74.10;99076.28;5025388;28;20053;-85
2022/12/30 16:33:34;;;;;;;4.50;1.70;;;10.50;92.00;;;9.36;73.93;99066.66;5012869;28;20038;-84
2022/12/30 16:36:05;;;;;;;4.05;1.80;;;10.50;92.00;;;9.39;73.70;99065.41;5021826;28;20112;-85
2022/12/30 16:38:38;;;;;;;3.92;1.70;;;10.50;91.80;;;9.42;73.56;99079.03;5018245;28;20065;-85
2022/12/30 16:41:06;;;;;;;3.03;1.60;;;10.50;92.00;;;9.43;73.91;99079.84;5013422;28;20065;-86
2022/12/30 16:43:35;;;;;;;6.78;1.88;;;10.50;92.20;;;9.46;73.93;99074.03;5009978;28;20053;-85
2022/12/30 16:46:07;;;;;;;3.53;1.50;;;10.50;92.20;;;9.47;74.02;99065.81;5013252;28;20526;-85
2022/12/30 16:48:34;;;;;;;5.32;1.90;;;10.60;92.20;;;9.48;74.11;99085.25;5012981;28;20048;-85
2022/12/30 16:51:02;;;;;;;5.97;2.47;;;10.70;92.40;;;9.44;74.41;99081.47;5010101;28;20062;-85
2022/12/30 16:53:30;;;;;;;3.58;2.00;;;10.60;92.70;;;9.44;74.51;99081.47;5012374;28;20042;-85
2022/12/30 16:55:58;;;;;;;3.47;1.42;;;10.50;92.90;;;9.42;74.69;99087.03;5006963;28;20081;-85
2022/12/30 16:58:25;;;;;;;3.20;1.40;;;10.50;93.00;;;9.45;74.54;99080.41;5004310;28;20050;-85
2022/12/30 17:00:56;;;;;;;6.63;1.80;;;10.60;92.60;;;9.48;74.42;99094.06;5027468;28;20503;-84
2022/12/30 17:03:26;;;;;;;4.78;1.60;;;10.60;92.80;;;9.53;74.26;99096.00;5018096;28;20071;-83
2022/12/30 17:05:54;;;;;;;4.63;1.80;;;10.60;92.70;;;9.56;74.22;99098.16;5015187;28;20049;-87
2022/12/30 17:08:25;;;;;;;4.60;1.50;;;10.60;92.40;;;9.60;74.09;99101.16;5006624;28;20303;-86
2022/12/30 17:10:57;;;;;;;4.10;1.67;;;10.70;92.70;;;9.61;74.26;99089.47;5012140;28;20052;-86
2022/12/30 17:13:29;;;;;;;5.10;3.85;;;10.70;92.80;;;9.57;74.38;99112.31;5012094;28;20121;-86
2022/12/30 17:15:59;;;;;;;6.47;3.42;;;10.60;92.80;;;9.57;74.47;99109.66;5029999;28;20073;-84
2022/12/30 17:18:26;;;;;;;12.77;9.07;;;10.70;92.80;;;9.55;74.75;99104.53;5039676;28;20411;-88
2022/12/30 17:20:58;;;;;;;10.57;8.10;;;10.70;93.00;;;9.58;74.71;99101.41;5010369;28;20129;-87
2022/12/30 17:23:33;;;;;;;5.32;2.40;;;10.80;93.20;;;9.60;74.51;99104.63;5007422;28;20535;-89
2022/12/30 17:26:01;;;;;;;6.03;2.50;;;10.70;93.20;;;9.60;74.59;99099.31;5009312;28;20046;-86
2022/12/30 17:28:28;;;;;;;4.00;2.20;;;10.70;93.10;;;9.66;74.54;99102.88;5013314;28;20590;-86
2022/12/30 17:30:57;;;;;;;6.32;2.40;;;10.70;93.20;;;9.66;74.67;99124.16;5014870;28;20049;-83
2022/12/30 17:33:24;;;;;;;7.05;2.53;;;10.80;93.00;;;9.66;74.92;99124.16;5014356;28;20034;-87
2022/12/30 17:35:51;;;;;;;4.15;2.00;;;10.70;93.20;;;9.67;74.65;99105.31;5015138;28;20125;-85
2022/12/30 17:38:19;;;;;;;5.00;1.88;;;10.80;92.80;;;9.68;74.44;99117.56;5011710;28;20506;-86
2022/12/30 17:40:46;;;;;;;7.45;3.25;;;10.70;93.00;;;9.73;74.35;99095.56;5027018;28;20042;-83
2022/12/30 17:43:14;;;;;;;16.42;12.95;;;10.80;92.80;;;9.69;74.36;99113.84;5000858;28;20054;-84
2022/12/30 17:45:42;;;;;;;6.53;4.65;;;10.80;92.90;;;9.73;74.35;99108.88;5005320;28;20124;-83
2022/12/30 17:48:17;;;;;;;5.82;2.70;;;10.80;92.80;;;9.79;74.17;99110.56;5021737;28;20621;-83
2022/12/30 17:50:44;;;;;;;4.35;1.88;;;10.90;92.80;;;9.77;74.31;99115.34;5012596;28;20034;-83
2022/12/30 17:53:13;;;;;;;5.00;1.75;;;10.80;92.80;;;9.76;74.28;99117.19;5009054;28;20042;-83
2022/12/30 17:55:42;;;;;;;4.75;2.03;;;10.80;92.70;;;9.79;74.19;99115.91;5014985;28;20108;-82
2022/12/30 17:58:09;;;;;;;9.07;2.00;;;10.80;92.70;;;9.80;74.28;99125.50;5014308;28;20056;-83
2022/12/30 18:00:37;;;;;;;4.97;1.65;;;10.80;92.70;;;9.81;74.33;99135.13;5017371;28;20127;-81
2022/12/30 18:03:05;;;;;;;5.82;1.60;;;10.90;92.90;;;9.83;74.11;99130.34;5013651;28;20048;-82
2022/12/30 18:05:33;;;;;;;4.78;1.75;;;10.90;92.80;;;9.87;74.34;99144.00;5025407;28;20116;-84
2022/12/30 18:08:00;;;;;;;5.47;2.13;;;10.90;93.10;;;9.85;74.68;99143.41;5017901;28;20046;-84
2022/12/30 18:10:28;;;;;;;4.43;2.17;;;10.90;93.40;;;9.85;74.56;99151.41;5032159;28;20611;-82
2022/12/30 18:12:55;;;;;;;6.30;2.50;;;10.90;93.30;;;9.87;74.51;99166.09;5003781;28;20050;-83
2022/12/30 18:15:22;;;;;;;4.90;2.08;;;10.90;93.30;;;9.89;74.61;99163.19;5009622;28;20124;-83
2022/12/30 18:17:50;;;;;;;3.85;2.00;;;10.90;93.50;;;9.90;74.81;99164.81;5007915;28;20046;-82
2022/12/30 18:20:19;;;;;;;4.68;2.00;;;10.90;93.60;;;9.91;74.59;99153.94;5002831;28;20120;-83
2022/12/30 18:22:51;;;;;;;4.68;2.47;;;10.90;93.20;;;9.93;74.67;99175.00;5006470;28;20054;-83
2022/12/30 18:25:18;;;;;;;;;;;10.90;93.40;;;9.93;74.65;99175.00;5001659;28;20049;-83
2022/12/30 18:27:45;;;;;;;5.47;2.60;;;11.00;93.20;;;9.92;74.88;99176.84;5004388;28;19932;-83
2022/12/30 18:30:14;;;;;;;4.50;2.40;;;10.90;93.60;;;9.91;75.33;99177.09;5007586;28;20121;-83
2022/12/30 18:32:41;;;;;;;4.40;2.55;;;10.90;93.60;;;9.92;75.48;99176.84;5019950;28;20140;-83
2022/12/30 18:35:09;;;;;;;5.43;2.35;;;11.00;94.00;;;9.93;75.33;99180.31;5009131;28;20038;-83
2022/12/30 18:37:36;;;;;;;6.07;2.60;;;11.00;93.70;;;9.97;75.43;99186.78;5005698;28;20033;-83
2022/12/30 18:40:07;;;;;;;7.45;3.25;;;11.00;94.10;;;9.99;75.28;99190.00;5004877;28;20423;-83
2022/12/30 18:42:34;;;;;;;5.47;3.10;;;11.00;93.90;;;10.00;75.32;99176.47;5000914;28;20050;-84
2022/12/30 18:45:03;;;;;;;4.38;2.53;;;11.00;94.00;;;9.98;75.62;99178.56;5011792;28;20060;-83
2022/12/30 18:47:30;;;;;;;6.10;2.65;;;11.00;94.10;;;9.99;75.89;99185.50;5009643;28;20053;-83
2022/12/30 18:49:57;;;;;;;5.05;3.00;;;11.00;94.80;;;10.02;75.86;99195.69;5008031;28;20056;-83
2022/12/30 18:52:24;;;;;;;25.90;14.32;;;11.00;94.80;;;10.02;75.95;99201.00;5008101;28;20069;-83
2022/12/30 18:54:53;;;;;;;24.58;12.73;;;11.10;94.80;;;10.05;75.94;99202.38;5015111;28;20701;-84
2022/12/30 18:57:22;;;;;;;26.98;13.48;;;11.10;94.90;;;10.05;76.00;99197.03;5009793;28;20050;-84
2022/12/30 18:59:49;;;;;;;32.80;20.15;;;11.10;94.80;;;10.06;75.91;99212.00;5007343;28;20061;-87
2022/12/30 19:02:16;;;;;;;9.75;6.15;;;11.10;94.70;;;10.09;76.06;99216.81;5007129;28;20056;-85
2022/12/30 19:04:43;;;;;;;16.17;9.98;;;11.10;94.90;;;10.09;76.15;99216.03;5015641;28;20049;-84
2022/12/30 19:07:11;;;;;;;21.27;12.63;;;11.10;95.00;;;10.10;76.02;99215.78;5005368;28;20628;-86
2022/12/30 19:09:38;;;;;;;9.07;5.93;;;11.20;94.80;;;10.10;76.33;99218.44;5006092;28;21519;-86
2022/12/30 19:12:06;;;;;;;5.05;3.15;;;11.10;94.90;;;10.13;76.23;99228.63;5004986;28;20481;-85
2022/12/30 19:14:35;;;;;;;6.68;3.55;;;11.10;95.00;;;10.18;76.28;99217.25;5013111;28;20053;-85
2022/12/30 19:17:02;;;;;;;7.80;3.67;;;11.20;94.80;;;10.19;76.17;99217.00;5007962;28;20045;-85
2022/12/30 19:19:29;;;;;;;5.00;3.10;;;11.20;94.80;;;10.18;76.30;99231.38;5014655;28;20121;-85
2022/12/30 19:21:57;;;;;;;3.83;2.33;;;11.20;95.00;;;10.19;76.33;99230.31;5012592;28;20057;-86
2022/12/30 19:24:24;;;;;;;4.25;2.30;;;11.20;95.20;;;10.20;76.17;99239.97;5007019;28;20034;-86
2022/12/30 19:26:51;;;;;;;4.72;2.38;;;11.40;95.00;;;10.23;76.08;99242.13;5013984;28;20046;-85
2022/12/30 19:29:18;;;;;;;4.45;2.00;;;11.30;95.00;;;10.25;76.30;99248.09;5008778;28;20052;-85
2022/12/30 19:31:47;;;;;;;3.95;2.30;;;11.30;95.40;;;10.28;76.48;99258.25;5009027;28;20052;-86
2022/12/30 19:34:17;;;;;;;3.67;1.83;;;11.30;95.40;;;10.30;76.24;99261.50;5002880;28;20531;-85
2022/12/30 19:36:45;;;;;;;4.20;1.80;;;11.30;95.40;;;10.34;76.43;99261.00;5001509;28;20081;-85
2022/12/30 19:39:16;;;;;;;4.07;1.77;;;11.30;95.60;;;10.36;76.34;99253.59;5008187;28;20585;-86
2022/12/30 19:41:45;;;;;;;3.97;1.80;;;11.40;95.30;;;10.37;76.55;99265.84;5007269;28;20092;-85
2022/12/30 19:44:15;;;;;;;3.50;1.90;;;11.40;95.50;;;10.38;76.48;99264.81;5009748;28;20046;-86
2022/12/30 19:46:43;;;;;;;3.35;1.73;;;11.40;95.50;;;10.40;76.52;99268.88;5009296;28;20045;-85
2022/12/30 19:49:17;;;;;;;3.97;1.80;;;11.40;95.80;;;10.42;76.70;99260.63;5002652;28;20053;-86
2022/12/30 19:51:45;;;;;;;5.15;3.60;;;11.40;95.70;;;10.43;76.79;99264.91;4998680;28;20169;-85
2022/12/30 19:54:13;;;;;;;5.35;2.65;;;11.70;95.90;;;10.46;76.74;99265.22;5000100;28;20255;-86
2022/12/30 19:56:41;;;;;;;3.67;2.17;;;11.50;95.90;;;10.47;76.65;99271.38;5021164;28;20497;-85
2022/12/30 19:59:11;;;;;;;3.08;1.73;;;11.50;95.80;;;10.47;76.84;99282.84;4999507;28;20045;-86
2022/12/30 20:01:39;;;;;;;5.35;1.80;;;11.50;95.70;;;10.51;76.86;99280.50;5035221;28;20795;-86
2022/12/30 20:04:13;;;;;;;4.57;2.03;;;11.50;96.00;;;10.53;76.78;99273.06;5006111;28;20049;-85
2022/12/30 20:06:43;;;;;;;3.58;1.70;;;11.60;95.80;;;10.55;76.76;99271.78;5008796;28;20138;-86
2022/12/30 20:09:14;;;;;;;5.05;2.05;;;11.60;95.90;;;10.59;76.75;99280.13;5008102;28;20057;-85
2022/12/30 20:11:41;;;;;;;;;;;11.60;95.90;;;10.62;77.13;99281.47;5006149;28;20046;-85
2022/12/30 20:14:13;;;;;;;5.05;1.88;;;11.60;96.20;;;10.62;77.02;99284.97;5007201;28;20355;-85
2022/12/30 20:16:42;;;;;;;4.13;2.05;;;11.60;96.30;;;10.65;76.89;99289.00;5005894;28;20863;-86
2022/12/30 20:19:15;;;;;;;3.85;2.00;;;11.70;96.50;;;10.69;77.18;99290.97;5000467;28;20042;-86
2022/12/30 20:21:43;;;;;;;4.10;2.17;;;11.70;96.40;;;10.70;77.15;99292.56;5035637;28;20056;-86
2022/12/30 20:24:10;;;;;;;2.92;1.60;;;11.70;96.60;;;10.72;77.04;99290.47;5003765;28;20037;-86
2022/12/30 20:26:39;;;;;;;3.88;2.13;;;11.70;96.40;;;10.73;77.36;99284.06;4999245;28;20041;-86
2022/12/30 20:29:10;;;;;;;4.65;1.90;;;11.70;96.70;;;10.78;77.52;99294.03;5005038;28;20411;-86
2022/12/30 20:31:42;;;;;;;3.58;1.70;;;11.80;97.00;;;10.80;77.56;99289.28;5005351;28;20127;-86
2022/12/30 20:34:10;;;;;;;4.53;2.40;;;11.80;97.10;;;10.80;77.52;99300.75;5000339;28;20049;-86
2022/12/30 20:36:42;;;;;;;5.07;2.10;;;11.80;97.00;;;10.83;77.87;99294.09;5007036;28;20056;-87
2022/12/30 20:39:16;;;;;;;6.05;1.92;;;11.90;97.20;;;10.87;77.81;99307.78;5014917;28;20046;-86
2022/12/30 20:41:53;;;;;;;3.50;2.00;;;11.90;97.40;;;10.90;78.02;99307.31;5007753;28;20132;-86
2022/12/30 20:44:22;;;;;;;3.95;1.98;;;11.90;97.40;;;10.93;78.30;99307.63;5044788;22;20056;-72
2022/12/30 20:46:50;;;;;;;3.30;1.77;;;11.90;97.70;;;10.98;78.39;99317.53;5028437;28;20057;-72
2022/12/30 20:49:19;;;;;;;5.95;2.60;;;11.90;98.00;;;11.03;78.63;99323.00;5026420;28;20057;-73
2022/12/30 20:51:48;;;;;;;5.70;3.22;;;11.90;98.30;;;11.05;78.88;99318.22;5025545;28;20038;-73
2022/12/30 20:54:17;;;;;;;4.90;2.75;;;12.00;98.40;;;11.08;78.83;99315.88;5025162;28;20059;-72
2022/12/30 20:56:45;;;;;;;3.97;1.92;;;12.10;98.50;;;11.09;78.54;99319.34;5021383;28;20092;-73
2022/12/30 20:59:14;;;;;;;3.38;1.65;;;12.10;98.40;;;11.11;78.75;99322.56;5020333;28;20684;-73
2022/12/30 21:01:43;;;;;;;5.07;1.70;;;12.10;98.50;;;11.14;78.67;99327.44;5016315;28;20072;-72
2022/12/30 21:04:13;;;;;;;3.60;1.52;;;12.10;98.50;;;11.19;78.78;99337.38;5015603;28;20049;-73
2022/12/30 21:06:41;;;;;;;3.10;1.50;;;12.20;98.70;;;11.20;78.76;99323.78;5023311;28;20060;-72
2022/12/30 21:09:15;;;;;;;3.50;1.63;;;12.20;98.30;;;11.20;78.46;99331.78;5018753;28;20185;-73
2022/12/30 21:11:43;;;;;;;3.90;1.58;;;12.20;98.30;;;11.22;78.56;99319.00;5018270;28;20056;-73
2022/12/30 21:14:12;;;;;;;3.28;1.60;;;12.20;98.30;;;11.27;78.53;99315.59;5018467;28;20045;-72
2022/12/30 21:16:40;;;;;;;3.38;1.42;;;12.30;98.30;;;11.28;78.64;99325.25;5026233;28;20041;-72
2022/12/30 21:19:07;;;;;;;2.95;1.60;;;12.30;98.40;;;11.31;78.44;99341.56;5024721;28;20047;-73
2022/12/30 21:21:35;;;;;;;3.53;1.35;;;12.30;98.30;;;11.33;78.58;99342.16;5022995;28;20045;-73
2022/12/30 21:24:02;;;;;;;3.85;1.70;;;12.30;98.40;;;11.35;78.64;99360.59;5018686;28;20414;-73
2022/12/30 21:26:32;;;;;;;3.10;1.50;;;12.30;98.40;;;11.37;78.49;99365.66;5019516;28;20056;-73
2022/12/30 21:29:02;;;;;;;3.78;1.40;;;12.40;98.20;;;11.37;78.39;99366.50;5020063;28;20499;-73
2022/12/30 21:31:32;;;;;;;3.78;1.50;;;12.40;98.10;;;11.37;78.32;99371.00;5016230;28;20052;-73
2022/12/30 21:34:03;;;;;;;2.92;1.48;;;12.40;97.90;;;11.38;78.38;99368.13;5017443;28;20084;-72
2022/12/30 21:36:32;;;;;;;3.38;1.60;;;12.40;98.30;;;11.42;78.86;99366.59;5018492;28;20503;-73
2022/12/30 22:04:48;;;;;;;4.85;2.38;;;12.40;98.70;;;11.48;78.90;99410.19;5036308;28;20053;-73
2022/12/30 22:07:15;;;;;;;4.35;2.20;;;12.50;98.70;;;11.46;78.63;99413.06;5039935;28;20095;-73
2022/12/30 22:09:43;;;;;;;5.80;2.40;;;12.50;98.30;;;11.47;78.83;99419.25;5038252;28;20031;-73
2022/12/30 22:12:10;;;;;;;5.10;2.45;;;12.50;98.80;;;11.49;78.94;99417.13;5038045;28;20040;-73
2022/12/30 22:14:40;;;;;;;6.15;2.70;;;12.50;98.80;;;11.48;78.72;99418.19;5029323;28;20045;-73
2022/12/30 22:17:08;;;;;;;5.82;2.33;;;12.50;98.80;;;11.49;78.77;99417.94;5034340;28;20069;-72
2022/12/30 22:19:35;;;;;;;8.10;2.50;;;12.50;98.90;;;11.50;78.61;99416.06;5041202;28;20123;-72
2022/12/30 22:22:02;;;;;;;4.05;2.20;;;12.50;98.30;;;11.50;78.89;99429.44;5043686;28;20130;-72
2022/12/30 22:24:31;;;;;;;5.07;2.65;;;12.50;98.30;;;11.49;78.47;99427.81;5044505;28;20496;-72
2022/12/30 22:26:58;;;;;;;6.78;2.50;;;12.50;98.30;;;11.49;78.54;99427.81;5039703;28;20051;-72
2022/12/30 22:29:25;;;;;;;5.30;2.45;;;12.50;98.30;;;11.53;78.60;99428.94;5044903;28;20062;-72
2022/12/30 22:31:53;;;;;;;3.88;2.33;;;12.50;98.60;;;11.54;78.52;99436.72;5037192;28;20045;-72
2022/12/30 22:34:21;;;;;;;4.32;2.35;;;12.50;98.50;;;11.54;78.62;99430.56;5069194;28;20048;-72
2022/12/30 22:36:48;;;;;;;4.30;2.25;;;12.50;98.30;;;11.56;78.60;99439.13;5046102;28;20057;-72
2022/12/30 22:39:15;;;;;;;4.47;2.08;;;12.60;98.40;;;11.58;78.46;99437.03;5033820;28;20041;-72
2022/12/30 22:41:42;;;;;;;4.07;2.30;;;12.60;98.20;;;11.59;78.62;99433.31;5037257;28;20052;-72
2022/12/30 22:44:09;;;;;;;5.15;2.13;;;12.60;98.30;;;11.60;78.14;99434.91;5037360;28;20045;-72
2022/12/30 22:46:36;;;;;;;5.18;2.30;;;12.60;97.90;;;11.59;78.36;99438.66;5038842;28;20045;-72
2022/12/30 22:49:05;;;;;;;3.33;1.80;;;12.60;98.10;;;11.60;78.22;99438.41;5037648;28;20043;-72
2022/12/30 22:51:32;;;;;;;4.57;1.90;;;12.60;98.30;;;11.65;78.85;99436.88;5042693;28;20873;-72
2022/12/30 22:53:59;;;;;;;3.38;1.70;;;12.60;98.80;;;11.67;78.98;99426.78;5042073;28;20045;-72
2022/12/30 22:56:27;;;;;;;3.25;1.80;;;12.70;99.10;;;11.68;78.89;99428.38;5041029;28;20041;-72
2022/12/30 22:58:55;;;;;;;4.05;1.50;;;12.70;98.90;;;11.68;79.09;99434.53;5042505;28;20037;-72
2022/12/30 23:01:24;;;;;;;3.28;1.10;;;12.70;99.30;;;11.71;79.23;99439.38;5045613;28;20495;-72
2022/12/30 23:03:57;;;;;;;2.97;1.55;;;12.70;99.50;;;11.70;79.40;99435.06;5039047;28;20048;-72
2022/12/30 23:06:26;;;;;;;6.00;1.63;;;12.70;99.50;;;11.71;79.34;99439.38;5039848;28;20049;-72
2022/12/30 23:08:54;;;;;;;2.80;1.40;;;12.70;99.60;;;11.71;79.59;99436.72;5047328;28;20140;-72
2022/12/30 23:11:21;;;;;;;3.17;1.45;;;12.70;99.60;;;11.73;79.47;99423.09;5051421;28;20072;-72
2022/12/30 23:16:36;;;;;;;2.70;1.30;;;12.80;99.70;;;11.77;79.74;99440.28;5036449;28;20123;-72
2022/12/30 23:19:05;;;;;;;3.92;1.58;;;12.70;99.90;;;11.78;79.53;99455.25;5034711;28;20037;-72
2022/12/30 23:21:34;;;;;;;4.35;1.30;;;12.80;99.60;;;11.78;79.51;99440.03;5049922;28;20448;-72
2022/12/30 23:26:47;;;;;;;3.45;1.40;;;12.80;99.40;;;11.79;79.39;99449.66;5046112;28;20052;-72
2022/12/30 23:29:17;;;;;;;3.17;1.45;;;12.80;99.40;;;11.78;79.29;99445.38;5038740;28;20140;-73
2022/12/30 23:31:45;;;;;;;3.72;1.33;;;12.80;99.30;;;11.79;79.75;99446.16;5066319;28;20574;-72
2022/12/30 23:34:13;;;;;;;5.63;1.40;;;12.80;99.50;;;11.80;79.44;99443.25;5044557;28;20051;-72
2022/12/30 23:36:44;;;;;;;2.10;1.02;;;12.80;99.50;;;11.81;79.51;99433.41;5035471;28;20040;-72
2022/12/30 23:39:13;;;;;;;2.20;1.13;;;12.80;99.70;;;11.84;79.66;99431.06;5042069;28;20044;-72
2022/12/30 23:41:41;;;;;;;2.95;1.20;;;12.90;99.90;;;11.84;79.42;99431.06;5043905;28;20635;-72
2022/12/30 23:44:10;;;;;;;2.35;0.95;;;12.80;99.30;;;11.87;79.59;99437.78;5042711;28;20038;-72
2022/12/30 23:46:39;;;;;;;2.05;0.98;;;12.90;99.80;;;11.88;79.36;99435.91;5039115;28;20045;-72
2022/12/30 23:49:06;;;;;;;4.05;1.20;;;12.90;99.50;;;11.89;79.30;99429.50;5042740;28;20051;-72
2022/12/30 23:51:35;;;;;;;2.88;1.23;;;12.90;99.50;;;11.91;79.41;99432.72;5050452;28;20609;-72
2022/12/30 23:54:05;;;;;;;3.85;0.95;;;12.90;99.40;;;11.93;79.28;99436.78;5044124;28;20038;-72
2022/12/30 23:56:33;;;;;;;2.95;1.00;;;12.90;99.50;;;11.96;79.01;99430.16;5038977;28;20041;-72
2022/12/30 23:59:00;;;;;;;2.53;1.00;;;12.90;99.30;;;11.95;79.08;99425.84;5043985;28;20142;-72
